PWSweather.com
Personal Weather Stations
Station Observations
WILS01
Leuven, WilseleBE 3012

LeuvenWilseleBE 3012

Lat: 50.89518, Lon: 4.69741

Elevation: 120

Station Type: DAVIS VP2

Latest ConditionsUpdated 5:26:33 AM GMT+01:01 Saturday, Feb 13, 2016
Currently Today's Max Today's Min Today's Average
Temperature 31.3°F-0.4°C 31.6°F-0.2°C 29.8°F-1.2°C 30.7°F-0.7°C
Dew Point 29.3°F-1.5°C 29.7°F-1.3°C 27.5°F-2.5°C 28.5°F-1.9°C
Winds Calm Calm Calm ENECalm ENE - Calm Calm
Wind Gusts -- 0.4 mph0.6 kmh - -
Humidity 92% 93% 89% 91%
Pressure 29.33 in993.2 mb 29.40 in995.6 mb 29.33 in993.2 mb -
Hour Temp Dew Point Humidity Winds Wind Gusts Pressure Precip Precip Rate Daily Precip Total
05:26 AM 31.3°F-0.4°C 29.3°F-1.5°C 92% Calm Calm -- 29.33 in993.2 mb - 0.00 in0.0 mm 0.00 in0.0 mm
05:16 AM 31.3°F-0.4°C 29.3°F-1.5°C 92% Calm Calm -- 29.34 in993.6 mb - 0.00 in0.0 mm 0.00 in0.0 mm
05:05 AM 31.5°F-0.3°C 29.5°F-1.4°C 92% Calm Calm -- 29.33 in993.2 mb - 0.00 in0.0 mm 0.00 in0.0 mm
04:55 AM 31.3°F-0.4°C 29.3°F-1.5°C 92% Calm Calm -- 29.33 in993.2 mb - 0.00 in0.0 mm 0.00 in0.0 mm
04:45 AM 31.3°F-0.4°C 29.3°F-1.5°C 92% Calm Calm -- 29.33 in993.2 mb - 0.00 in0.0 mm 0.00 in0.0 mm
04:34 AM 31.5°F-0.3°C 29.5°F-1.4°C 92% Calm Calm -- 29.34 in993.6 mb - 0.00 in0.0 mm 0.00 in0.0 mm
04:24 AM 31.6°F-0.2°C 29.7°F-1.3°C 92% Calm Calm -- 29.35 in993.9 mb - 0.00 in0.0 mm 0.00 in0.0 mm
04:14 AM 31.6°F-0.2°C 29.7°F-1.3°C 92% Calm Calm 0.4 mph0.6 kmh 29.35 in993.9 mb - 0.00 in0.0 mm 0.00 in0.0 mm
04:04 AM 31.5°F-0.3°C 29.7°F-1.3°C 93% Calm Calm -- 29.35 in993.9 mb - 0.00 in0.0 mm 0.00 in0.0 mm
03:54 AM 30.9°F-0.6°C 29.1°F-1.6°C 93% Calm Calm -- 29.36 in994.2 mb - 0.00 in0.0 mm 0.00 in0.0 mm
03:43 AM 30.6°F-0.8°C 28.6°F-1.9°C 92% Calm Calm -- 29.36 in994.2 mb - 0.00 in0.0 mm 0.00 in0.0 mm
03:33 AM 30.6°F-0.8°C 28.6°F-1.9°C 92% Calm Calm -- 29.36 in994.2 mb - 0.00 in0.0 mm 0.00 in0.0 mm
03:23 AM 30.6°F-0.8°C 28.6°F-1.9°C 92% Calm Calm -- 29.35 in993.9 mb - 0.00 in0.0 mm 0.00 in0.0 mm
03:13 AM 30.6°F-0.8°C 28.6°F-1.9°C 92% Calm Calm -- 29.36 in994.2 mb - 0.00 in0.0 mm 0.00 in0.0 mm
03:02 AM 30.4°F-0.9°C 28.4°F-2.0°C 92% Calm Calm -- 29.36 in994.2 mb - 0.00 in0.0 mm 0.00 in0.0 mm
02:52 AM 30.0°F-1.1°C 28.0°F-2.2°C 92% Calm Calm -- 29.36 in994.2 mb - 0.00 in0.0 mm 0.00 in0.0 mm
02:41 AM 30.0°F-1.1°C 27.7°F-2.4°C 91% Calm Calm -- 29.37 in994.6 mb - 0.00 in0.0 mm 0.00 in0.0 mm
02:31 AM 30.0°F-1.1°C 27.7°F-2.4°C 91% Calm Calm -- 29.37 in994.6 mb - 0.00 in0.0 mm 0.00 in0.0 mm
02:21 AM 29.8°F-1.2°C 27.5°F-2.5°C 91% Calm Calm -- 29.38 in994.9 mb - 0.00 in0.0 mm 0.00 in0.0 mm
02:10 AM 29.8°F-1.2°C 27.5°F-2.5°C 91% Calm Calm -- 29.38 in994.9 mb - 0.00 in0.0 mm 0.00 in0.0 mm
02:00 AM 29.8°F-1.2°C 27.5°F-2.5°C 90% Calm Calm -- 29.38 in994.9 mb - 0.00 in0.0 mm 0.00 in0.0 mm
01:49 AM 30.0°F-1.1°C 27.5°F-2.5°C 90% Calm Calm -- 29.38 in994.9 mb - 0.00 in0.0 mm 0.00 in0.0 mm
01:39 AM 30.0°F-1.1°C 27.5°F-2.5°C 90% Calm Calm -- 29.39 in995.3 mb - 0.00 in0.0 mm 0.00 in0.0 mm
01:28 AM 30.2°F-1.0°C 27.7°F-2.4°C 90% Calm Calm -- 29.39 in995.3 mb - 0.00 in0.0 mm 0.00 in0.0 mm
01:18 AM 30.4°F-0.9°C 27.9°F-2.3°C 90% Calm Calm -- 29.40 in995.6 mb - 0.00 in0.0 mm 0.00 in0.0 mm
01:08 AM 30.4°F-0.9°C 27.9°F-2.3°C 90% Calm Calm -- 29.40 in995.6 mb - 0.00 in0.0 mm 0.00 in0.0 mm
12:58 AM 30.6°F-0.8°C 27.7°F-2.4°C 89% Calm Calm -- 29.40 in995.6 mb - 0.00 in0.0 mm 0.00 in0.0 mm
12:47 AM 30.7°F-0.7°C 27.9°F-2.3°C 89% Calm Calm -- 29.40 in995.6 mb - 0.00 in0.0 mm 0.00 in0.0 mm
12:37 AM 30.9°F-0.6°C 28.0°F-2.2°C 89% Calm Calm -- 29.40 in995.6 mb - 0.00 in0.0 mm 0.00 in0.0 mm
12:26 AM 31.1°F-0.5°C 28.2°F-2.1°C 89% Calm Calm -- 29.40 in995.6 mb - 0.00 in0.0 mm 0.00 in0.0 mm
12:16 AM 31.3°F-0.4°C 28.4°F-2.0°C 89% Calm Calm -- 29.40 in995.6 mb - 0.00 in0.0 mm 0.00 in0.0 mm
12:06 AM 31.5°F-0.3°C 28.6°F-1.9°C 89% Calm Calm -- 29.40 in995.6 mb - 0.00 in0.0 mm 0.00 in0.0 mm